McCook Lake, South Dakota
Current Conditions -  °F | °C
As of 11:52 PM on Wednesday 28 Jan 2015 (Local Time) from KSUX Reporting Station
Overcast Overcast  
Wind Chill: 25°   Ceiling: 1200
Heat Index: 37°   Visibility: 10mi
Dew Point: 32°   Wind: 29mph
Humidity: 82%   Direction: 330°NNW
Pressure: 29.99"   Gusts: 40mph
Location:  42.532°N, 96.5446°W
Report Text: KSUX 290552Z 33025G35KT 10SM OVC012 03/00 A2999 RMK AO2 PK WND 32043/0454 SNE30 SLP165 P0000 60000 T00280000 10072 20017 401111006 53054
Loading
Personal Weather Stations






























Interactive Weather Map New forecast layout! Learn more

10-Day Weather Forecast

Advertisements
Track Severe Weather on mobile